Time;durP1;ratioP1;P1;durP2;ratioP2;P2;SDS_P1;SDS_P2;PMS_P1;PMS_P2;Temp;Humidity;BMP_temperature;BMP_pressure;BME280_temperature;BME280_humidity;BME280_pressure;Samples;Min_cycle;Max_cycle;Signal;HPM_P1;HPM_P2
2023/11/19 10:54:08;;;;;;;0.30;0.30;;;;;;;;;;7398674;19;20173;-92
2023/11/19 10:56:40;;;;;;;0.30;0.30;;;;;;;;;;7395046;19;20204;-92
2023/11/19 10:59:19;;;;;;;0.30;0.30;;;;;;;;;;7395201;19;20200;-92
2023/11/19 11:02:02;;;;;;;1.23;1.10;;;;;;;;;;7391428;19;20132;-92
2023/11/19 11:04:33;;;;;;;0.40;0.40;;;;;;;;;;7392000;19;20132;-92
2023/11/19 11:07:20;;;;;;;0.30;0.30;;;;;;;;;;7393002;19;20716;-91
2023/11/19 11:10:05;;;;;;;0.57;0.57;;;;;;;;;;7393961;19;20594;-93
2023/11/19 11:12:53;;;;;;;0.85;0.85;;;;;;;;;;7393349;19;20167;-92
2023/11/19 11:15:31;;;;;;;0.30;0.30;;;;;;;;;;7391454;19;20153;-92
2023/11/19 11:18:05;;;;;;;0.30;0.30;;;;;;;;;;7395451;19;20149;-90
2023/11/19 11:20:33;;;;;;;0.30;0.30;;;;;;;;;;7392513;19;20491;-92
2023/11/19 11:23:22;;;;;;;0.30;0.30;;;;;;;;;;7392932;19;20594;-91
2023/11/19 11:26:23;;;;;;;0.20;0.20;;;;;;;;;;7393551;19;20203;-93
2023/11/19 11:29:14;;;;;;;0.30;0.30;;;;;;;;;;7394840;19;20673;-91
2023/11/19 11:32:20;;;;;;;0.57;0.57;;;;;;;;;;7390254;19;20158;-92
2023/11/19 11:35:24;;;;;;;0.20;0.20;;;;;;;;;;7396301;19;20156;-93
2023/11/19 11:37:57;;;;;;;0.20;0.20;;;;;;;;;;7398749;19;20204;-92
2023/11/19 11:40:34;;;;;;;0.30;0.30;;;;;;;;;;7400971;19;20148;-90
2023/11/19 11:43:24;;;;;;;0.30;0.30;;;;;;;;;;7398842;19;20128;-92
2023/11/19 13:14:56;;;;;;;0.30;0.30;;;;;;;;;;7400399;19;20972;-91
2023/11/19 13:17:24;;;;;;;0.20;0.20;;;;;;;;;;7395763;19;20164;-89
2023/11/19 13:19:53;;;;;;;0.25;0.25;;;;;;;;;;7394953;19;20136;-89
2023/11/19 13:22:28;;;;;;;0.30;0.30;;;;;;;;;;7399650;19;20201;-89
2023/11/19 13:25:12;;;;;;;0.30;0.30;;;;;;;;;;7398624;19;20554;-91
2023/11/19 13:27:46;;;;;;;0.40;0.40;;;;;;;;;;7399133;19;20649;-91
2023/11/19 13:30:29;;;;;;;0.30;0.30;;;;;;;;;;7398438;19;20498;-91
2023/11/19 13:33:12;;;;;;;0.30;0.30;;;;;;;;;;7406650;19;20161;-94
2023/11/19 13:35:43;;;;;;;0.30;0.30;;;;;;;;;;7398985;19;20145;-92
2023/11/19 13:38:40;;;;;;;;;;;;;;;;;;;;;
2023/11/19 13:41:37;;;;;;;0.40;0.40;;;;;;;;;;7397744;19;20196;-90
2023/11/19 13:44:25;;;;;;;0.30;0.30;;;;;;;;;;7393871;19;20160;-92
2023/11/19 13:47:25;;;;;;;0.30;0.30;;;;;;;;;;7395380;19;20189;-91
2023/11/19 13:53:44;;;;;;;0.45;0.45;;;;;;;;;;7391453;19;20152;-90
2023/11/19 13:56:44;;;;;;;0.30;0.30;;;;;;;;;;7391860;19;20759;-88
2023/11/19 14:02:48;;;;;;;0.40;0.40;;;;;;;;;;7395006;19;20145;-89
2023/11/19 14:05:58;;;;;;;0.30;0.30;;;;;;;;;;7395561;19;20607;-88
2023/11/19 14:08:30;;;;;;;0.30;0.30;;;;;;;;;;7400079;19;20170;-89
2023/11/19 14:10:57;;;;;;;0.43;0.43;;;;;;;;;;7399315;19;20150;-89
2023/11/19 14:13:24;;;;;;;0.30;0.30;;;;;;;;;;7398616;19;20148;-87
2023/11/19 14:15:51;;;;;;;0.30;0.30;;;;;;;;;;7397663;19;20167;-87
2023/11/19 14:18:18;;;;;;;0.73;0.63;;;;;;;;;;7395736;19;20143;-89
2023/11/19 14:20:46;;;;;;;0.30;0.30;;;;;;;;;;7382881;19;20153;-92
2023/11/19 14:23:13;;;;;;;0.40;0.40;;;;;;;;;;7384982;19;20200;-89
2023/11/19 14:25:43;;;;;;;0.20;0.20;;;;;;;;;;7385455;19;20669;-90
2023/11/19 14:28:10;;;;;;;0.45;0.45;;;;;;;;;;7382235;19;20140;-90
2023/11/19 14:30:38;;;;;;;1.85;1.15;;;;;;;;;;7385327;19;20141;-89
2023/11/19 14:33:05;;;;;;;0.30;0.30;;;;;;;;;;7389815;19;20196;-88
2023/11/19 14:35:33;;;;;;;0.57;0.57;;;;;;;;;;7399587;19;20140;-89
2023/11/19 14:38:04;;;;;;;0.38;0.38;;;;;;;;;;7401730;19;20528;-88
2023/11/19 14:40:31;;;;;;;0.30;0.30;;;;;;;;;;7398734;19;20145;-88
2023/11/19 14:46:14;;;;;;;0.30;0.30;;;;;;;;;;7398758;19;20590;-88
2023/11/19 14:48:41;;;;;;;0.32;0.32;;;;;;;;;;7400368;19;20160;-89
2023/11/19 14:51:08;;;;;;;0.40;0.40;;;;;;;;;;7395848;19;20149;-90
2023/11/19 14:53:35;;;;;;;0.30;0.30;;;;;;;;;;7382639;19;20205;-92
2023/11/19 14:56:04;;;;;;;0.30;0.30;;;;;;;;;;7379761;19;20195;-89
2023/11/19 14:58:44;;;;;;;;;;;;;;;;;;;;;
2023/11/19 15:01:12;;;;;;;0.30;0.30;;;;;;;;;;7406531;19;20145;-93
2023/11/19 15:03:39;;;;;;;0.30;0.30;;;;;;;;;;7419382;19;20144;-95
2023/11/19 15:06:12;;;;;;;0.30;0.30;;;;;;;;;;7422407;19;20622;-91
2023/11/19 15:09:07;;;;;;;0.47;0.47;;;;;;;;;;7417669;19;20137;-92
2023/11/19 15:11:34;;;;;;;0.30;0.30;;;;;;;;;;7411541;19;20141;-91
2023/11/19 15:14:02;;;;;;;0.30;0.30;;;;;;;;;;7406608;19;20145;-93
2023/11/19 15:16:39;;;;;;;0.60;0.60;;;;;;;;;;7415421;19;20153;-92
2023/11/19 15:19:09;;;;;;;0.30;0.30;;;;;;;;;;7417888;19;20141;-92
2023/11/19 15:21:37;;;;;;;0.30;0.30;;;;;;;;;;7408595;19;20133;-92
2023/11/19 15:24:10;;;;;;;0.32;0.32;;;;;;;;;;7423448;19;20140;-91
2023/11/19 15:26:41;;;;;;;0.30;0.30;;;;;;;;;;7420354;19;20172;-90
2023/11/19 15:29:09;;;;;;;0.40;0.40;;;;;;;;;;7416916;19;20152;-91
2023/11/19 15:31:36;;;;;;;0.30;0.30;;;;;;;;;;7417838;19;20137;-92
2023/11/19 15:34:03;;;;;;;0.30;0.30;;;;;;;;;;7413699;19;20141;-92
2023/11/19 15:36:31;;;;;;;0.47;0.47;;;;;;;;;;7416532;19;20164;-92
2023/11/19 15:38:59;;;;;;;0.30;0.30;;;;;;;;;;7407980;19;20148;-92
2023/11/19 15:41:27;;;;;;;0.52;0.52;;;;;;;;;;7407001;19;20141;-92
2023/11/19 15:43:54;;;;;;;0.32;0.32;;;;;;;;;;7414100;19;20217;-91
2023/11/19 15:46:21;;;;;;;0.40;0.40;;;;;;;;;;7419134;19;20165;-91
2023/11/19 15:48:48;;;;;;;0.30;0.30;;;;;;;;;;7416229;19;20144;-90
2023/11/19 15:51:40;;;;;;;0.30;0.30;;;;;;;;;;7421334;19;20141;-91
2023/11/19 15:54:11;;;;;;;0.30;0.30;;;;;;;;;;7424885;19;20141;-92
2023/11/19 15:56:40;;;;;;;0.30;0.30;;;;;;;;;;7421227;19;20169;-93
2023/11/19 15:59:39;;;;;;;0.40;0.40;;;;;;;;;;7417666;19;20190;-92
2023/11/19 16:02:18;;;;;;;0.30;0.30;;;;;;;;;;7422736;19;20141;-92
2023/11/19 16:05:16;;;;;;;0.30;0.30;;;;;;;;;;7395488;19;20133;-92
2023/11/19 21:59:39;;;;;;;0.30;0.30;;;;;;;;;;7401148;19;20149;-90
2023/11/19 22:02:10;;;;;;;0.30;0.30;;;;;;;;;;7399766;19;20518;-93
2023/11/19 22:04:37;;;;;;;0.30;0.30;;;;;;;;;;7399526;19;20500;-90
2023/11/19 22:07:04;;;;;;;0.30;0.30;;;;;;;;;;7397150;19;20165;-91
2023/11/19 22:09:31;;;;;;;0.30;0.30;;;;;;;;;;7396394;19;20145;-92
2023/11/19 22:11:58;;;;;;;0.30;0.30;;;;;;;;;;7397878;19;20137;-93
2023/11/19 22:14:25;;;;;;;0.30;0.30;;;;;;;;;;7399517;19;20196;-91
2023/11/19 22:16:52;;;;;;;0.30;0.30;;;;;;;;;;7399723;19;20172;-90
2023/11/19 22:19:19;;;;;;;0.30;0.30;;;;;;;;;;7397600;19;20152;-92
2023/11/19 22:22:00;;;;;;;0.30;0.30;;;;;;;;;;7396748;19;20144;-90
2023/11/19 22:24:27;;;;;;;0.30;0.30;;;;;;;;;;7395958;19;20140;-93
2023/11/19 22:26:54;;;;;;;0.30;0.30;;;;;;;;;;7395632;19;20185;-92
2023/11/19 22:29:22;;;;;;;0.40;0.40;;;;;;;;;;7399092;19;20141;-90
2023/11/19 22:31:49;;;;;;;0.30;0.30;;;;;;;;;;7399735;19;20148;-91
2023/11/19 22:34:24;;;;;;;0.30;0.30;;;;;;;;;;7397481;19;20626;-92
2023/11/19 22:36:51;;;;;;;0.30;0.30;;;;;;;;;;7396307;19;20496;-92
2023/11/19 22:39:21;;;;;;;0.20;0.20;;;;;;;;;;7395395;19;20133;-91
2023/11/19 22:41:47;;;;;;;0.30;0.30;;;;;;;;;;7393591;19;20209;-92
2023/11/19 22:44:14;;;;;;;0.30;0.30;;;;;;;;;;7396384;19;20149;-93
2023/11/19 22:46:55;;;;;;;0.30;0.30;;;;;;;;;;7397133;19;20510;-92
2023/11/19 22:49:22;;;;;;;0.20;0.20;;;;;;;;;;7399030;19;20629;-92
2023/11/19 22:51:48;;;;;;;0.30;0.30;;;;;;;;;;7416963;19;20136;-95
2023/11/19 22:54:16;;;;;;;0.30;0.30;;;;;;;;;;7421459;19;20141;-91
2023/11/19 22:56:50;;;;;;;0.30;0.30;;;;;;;;;;7394879;19;20176;-92
2023/11/19 22:59:46;;;;;;;0.30;0.30;;;;;;;;;;7397461;19;20141;-94
2023/11/19 23:02:54;;;;;;;0.30;0.30;;;;;;;;;;7394991;19;20176;-93
